createdAt,value
2022-12-18T00:00:10.454Z,98446.91
2022-12-18T00:02:47.226Z,98442.66
2022-12-18T00:05:15.776Z,98446.16
2022-12-18T00:07:44.292Z,98452.31
2022-12-18T00:10:15.303Z,98455.78
2022-12-18T00:12:43.988Z,98461.88
2022-12-18T00:15:12.722Z,98460.19
2022-12-18T00:17:41.282Z,98450.63
2022-12-18T00:20:12.205Z,98448.00
2022-12-18T00:22:40.702Z,98439.28
2022-12-18T00:25:09.852Z,98428.78
2022-12-18T00:27:38.353Z,98432.25
2022-12-18T00:30:07.881Z,98440.97
2022-12-18T00:32:36.411Z,98452.41
2022-12-18T00:35:05.486Z,98457.56
2022-12-18T00:37:36.823Z,98454.19
2022-12-18T00:40:06.805Z,98454.94
2022-12-18T00:42:55.692Z,98436.66
2022-12-18T00:45:24.598Z,98419.22
2022-12-18T00:47:53.390Z,98430.56
2022-12-18T00:50:22.563Z,98438.44
2022-12-18T00:52:52.903Z,98436.66
2022-12-18T00:55:21.476Z,98438.34
2022-12-18T00:57:49.951Z,98435.72
2022-12-18T01:00:18.946Z,98444.63
2022-12-18T01:02:47.531Z,98453.34
2022-12-18T01:05:16.299Z,98461.13
2022-12-18T01:07:44.748Z,98460.28
2022-12-18T01:10:14.997Z,98467.31
2022-12-18T01:12:43.455Z,98475.19
2022-12-18T01:15:14.477Z,98468.25
2022-12-18T01:17:42.953Z,98472.72
2022-12-18T01:20:12.479Z,98477.03
2022-12-18T01:22:41.075Z,98482.28
2022-12-18T01:25:10.483Z,98479.66
2022-12-18T01:27:40.525Z,98482.38
2022-12-18T01:30:10.035Z,98491.09
2022-12-18T01:32:38.569Z,98495.50
2022-12-18T01:35:08.255Z,98499.91
2022-12-18T01:37:36.756Z,98497.28
2022-12-18T01:40:06.305Z,98498.97
2022-12-18T01:42:34.845Z,98502.53
2022-12-18T01:45:07.656Z,98501.66
2022-12-18T01:47:39.721Z,98495.66
2022-12-18T01:50:11.497Z,98498.19
2022-12-18T01:52:40.664Z,98497.28
2022-12-18T01:55:10.482Z,98503.38
2022-12-18T01:57:40.059Z,98506.06
2022-12-18T02:00:12.841Z,98499.13
2022-12-18T02:02:46.662Z,98488.72
2022-12-18T02:05:18.859Z,98492.19
2022-12-18T02:07:58.828Z,98493.88
2022-12-18T02:10:31.371Z,98497.44
2022-12-18T02:13:05.244Z,98504.38
2022-12-18T02:15:39.680Z,98497.44
2022-12-18T02:18:12.467Z,98492.19
2022-12-18T02:20:46.034Z,98484.41
2022-12-18T02:23:22.105Z,98481.78
2022-12-18T02:26:12.829Z,98495.75
2022-12-18T02:28:44.154Z,98492.09
2022-12-18T02:31:17.881Z,98477.44
2022-12-18T02:33:47.396Z,98473.91
2022-12-18T02:36:17.298Z,98478.28
2022-12-18T02:38:46.816Z,98487.88
2022-12-18T02:41:19.641Z,98483.47
2022-12-18T02:43:50.420Z,98487.88
2022-12-18T02:46:32.282Z,98487.88
2022-12-18T02:49:14.280Z,98476.59
2022-12-18T02:51:53.295Z,98489.72
2022-12-18T02:54:28.466Z,98496.75
2022-12-18T02:57:00.425Z,98488.78
2022-12-18T02:59:36.111Z,98486.25
2022-12-18T03:02:21.867Z,98479.31
2022-12-18T03:04:56.252Z,98470.59
2022-12-18T03:07:41.593Z,98478.38
2022-12-18T03:10:17.645Z,98478.38
2022-12-18T03:12:52.047Z,98474.06
2022-12-18T03:15:23.975Z,98477.63
2022-12-18T03:18:03.620Z,98488.97
2022-12-18T03:20:34.571Z,98486.41
2022-12-18T03:23:08.556Z,98482.00
2022-12-18T03:25:40.896Z,98482.09
2022-12-18T03:28:14.362Z,98477.69
2022-12-18T03:30:45.702Z,98480.31
2022-12-18T03:33:18.755Z,98491.81
2022-12-18T03:35:48.920Z,98493.53
2022-12-18T03:38:19.730Z,98487.44
2022-12-18T03:40:58.355Z,98491.06
2022-12-18T03:43:38.005Z,98498.94
2022-12-18T03:46:12.275Z,98493.59
2022-12-18T03:48:44.289Z,98476.16
2022-12-18T03:51:20.303Z,98478.78
2022-12-18T03:53:54.471Z,98476.25
2022-12-18T03:56:28.126Z,98473.53
2022-12-18T03:59:00.295Z,98484.97
2022-12-18T04:01:34.016Z,98485.88
2022-12-18T04:04:03.739Z,98489.28
2022-12-18T04:06:36.177Z,98493.69
2022-12-18T04:09:05.735Z,98497.16
2022-12-18T04:11:38.561Z,98497.22
2022-12-18T04:14:11.925Z,98491.28
2022-12-18T04:16:43.578Z,98493.84
2022-12-18T04:19:16.056Z,98493.84
2022-12-18T04:21:46.742Z,98487.75
2022-12-18T04:24:16.538Z,98486.91
2022-12-18T04:26:54.433Z,98501.78
2022-12-18T04:29:30.663Z,98501.78
2022-12-18T04:31:59.989Z,98509.75
2022-12-18T04:34:30.365Z,98509.81
2022-12-18T04:37:00.224Z,98529.88
2022-12-18T04:39:29.025Z,98525.56
2022-12-18T04:42:02.288Z,98529.97
2022-12-18T04:44:32.153Z,98533.59
2022-12-18T04:47:00.660Z,98523.94
2022-12-18T04:49:29.342Z,98526.66
2022-12-18T04:51:57.996Z,98522.34
2022-12-18T04:54:26.472Z,98510.91
2022-12-18T04:56:55.200Z,98508.28
2022-12-18T04:59:23.855Z,98507.44
2022-12-18T05:01:54.281Z,98526.56
2022-12-18T05:04:22.839Z,98518.84
2022-12-18T05:06:51.367Z,98518.78
2022-12-18T05:09:19.884Z,98533.75
2022-12-18T05:11:48.742Z,98538.16
2022-12-18T05:14:17.302Z,98538.16
2022-12-18T05:16:45.858Z,98542.53
2022-12-18T05:19:15.764Z,98532.06
2022-12-18T05:21:44.347Z,98537.31
2022-12-18T05:24:15.033Z,98549.56
2022-12-18T05:26:44.378Z,98540.84
2022-12-18T05:29:13.418Z,98533.91
2022-12-18T05:31:42.949Z,98535.78
2022-12-18T05:34:12.204Z,98533.09
2022-12-18T05:36:42.985Z,98540.97
2022-12-18T05:39:11.839Z,98541.88
2022-12-18T05:41:40.388Z,98538.50
2022-12-18T05:44:10.039Z,98549.00
2022-12-18T05:46:38.651Z,98554.22
2022-12-18T05:49:07.195Z,98562.19
2022-12-18T05:51:35.691Z,98564.88
2022-12-18T05:54:05.686Z,98552.53
2022-12-18T05:56:34.364Z,98551.69
2022-12-18T05:59:02.951Z,98549.31
2022-12-18T06:01:31.710Z,98546.53
2022-12-18T06:04:01.070Z,98529.84
2022-12-18T06:06:30.574Z,98539.59
2022-12-18T06:08:59.135Z,98544.81
2022-12-18T06:11:29.401Z,98550.91
2022-12-18T06:13:59.459Z,98557.09
2022-12-18T06:16:29.887Z,98559.78
2022-12-18T06:18:59.389Z,98562.41
2022-12-18T06:21:28.584Z,98558.94
2022-12-18T06:23:57.065Z,98557.25
2022-12-18T06:26:28.328Z,98567.59
2022-12-18T06:28:58.501Z,98566.88
2022-12-18T06:31:27.728Z,98570.50
2022-12-18T06:33:56.602Z,98574.91
2022-12-18T06:36:25.142Z,98578.31
2022-12-18T06:38:53.595Z,98576.59
2022-12-18T06:41:23.366Z,98573.06
2022-12-18T06:43:55.550Z,98573.97
2022-12-18T06:46:28.156Z,98575.00
2022-12-18T06:48:56.966Z,98572.28
2022-12-18T06:51:27.566Z,98566.97
2022-12-18T06:53:56.150Z,98580.06
2022-12-18T06:56:24.734Z,98589.56
2022-12-18T06:58:53.453Z,98597.59
2022-12-18T07:01:22.100Z,98595.81
2022-12-18T07:03:55.741Z,98595.81
2022-12-18T07:06:25.912Z,98590.56
2022-12-18T07:08:56.007Z,98591.50
2022-12-18T07:11:24.799Z,98586.31
2022-12-18T07:13:54.519Z,98596.81
2022-12-18T07:16:25.723Z,98595.97
2022-12-18T07:18:56.834Z,98602.97
2022-12-18T07:21:26.371Z,98605.59
2022-12-18T07:23:55.051Z,98607.31
2022-12-18T07:26:24.143Z,98602.13
2022-12-18T07:28:53.015Z,98602.06
2022-12-18T07:31:23.240Z,98597.81
2022-12-18T07:33:52.226Z,98611.69
2022-12-18T07:36:22.309Z,98604.75
2022-12-18T07:38:52.576Z,98604.75
2022-12-18T07:41:21.191Z,98599.50
2022-12-18T07:43:51.298Z,98597.81
2022-12-18T07:46:20.013Z,98601.22
2022-12-18T07:48:49.989Z,98597.75
2022-12-18T07:51:19.918Z,98599.50
2022-12-18T07:53:52.452Z,98599.50
2022-12-18T07:56:27.793Z,98606.44
2022-12-18T07:58:57.591Z,98604.75
2022-12-18T08:01:26.411Z,98606.59
2022-12-18T08:03:55.464Z,98611.78
2022-12-18T08:06:24.851Z,98614.31
2022-12-18T08:08:56.223Z,98615.31
2022-12-18T08:11:26.512Z,98617.09
2022-12-18T08:13:55.499Z,98620.50
2022-12-18T08:16:24.744Z,98624.88
2022-12-18T08:18:54.356Z,98630.13
2022-12-18T08:21:24.921Z,98637.94
2022-12-18T08:23:55.699Z,98636.22
2022-12-18T08:26:24.973Z,98633.59
2022-12-18T08:28:54.075Z,98647.56
2022-12-18T08:31:23.526Z,98645.88
2022-12-18T08:33:55.288Z,98643.25
2022-12-18T08:36:24.896Z,98636.31
2022-12-18T08:38:55.911Z,98644.94
2022-12-18T08:41:24.739Z,98649.34
2022-12-18T08:44:10.705Z,98641.47
2022-12-18T08:46:41.061Z,98663.28
2022-12-18T08:49:10.551Z,98660.75
2022-12-18T08:51:40.029Z,98654.59
2022-12-18T08:54:11.163Z,98651.03
2022-12-18T08:56:39.717Z,98656.28
2022-12-18T08:59:08.247Z,98654.59
2022-12-18T09:01:36.847Z,98653.66
2022-12-18T09:04:05.678Z,98650.19
2022-12-18T09:06:36.204Z,98651.03
2022-12-18T09:09:06.595Z,98649.19
2022-12-18T09:11:36.477Z,98645.78
2022-12-18T09:14:04.993Z,98643.16
2022-12-18T09:16:35.905Z,98643.16
2022-12-18T09:19:06.587Z,98644.88
2022-12-18T09:21:37.213Z,98642.25
2022-12-18T09:24:08.652Z,98641.31
2022-12-18T09:26:38.929Z,98637.84
2022-12-18T09:29:09.741Z,98636.06
2022-12-18T09:31:39.017Z,98631.69
2022-12-18T09:34:07.891Z,98631.69
2022-12-18T09:36:36.594Z,98629.91
2022-12-18T09:39:08.515Z,98630.84
2022-12-18T09:41:43.245Z,98636.84
2022-12-18T09:44:17.658Z,98627.13
2022-12-18T09:46:48.287Z,98627.13
2022-12-18T09:49:18.693Z,98616.63
2022-12-18T09:51:50.757Z,98606.31
2022-12-18T09:54:22.812Z,98608.16
2022-12-18T09:56:52.905Z,98607.22
2022-12-18T09:59:25.826Z,98609.78
2022-12-18T10:01:54.440Z,98613.25
2022-12-18T10:04:23.221Z,98609.63
2022-12-18T10:06:56.590Z,98608.78
2022-12-18T10:09:30.818Z,98605.16
2022-12-18T10:12:09.991Z,98608.78
2022-12-18T10:14:43.498Z,98605.31
2022-12-18T10:17:19.776Z,98607.78
2022-12-18T10:19:53.299Z,98606.00
2022-12-18T10:22:29.861Z,98601.59
2022-12-18T10:25:03.515Z,98602.44
2022-12-18T10:27:33.571Z,98603.22
2022-12-18T10:30:06.538Z,98608.53
2022-12-18T10:32:36.164Z,98594.50
2022-12-18T10:35:04.860Z,98603.16
2022-12-18T10:37:33.962Z,98601.38
2022-12-18T10:40:16.833Z,98604.00
2022-12-18T10:43:05.924Z,98605.69
2022-12-18T10:45:34.484Z,98598.75
2022-12-18T10:48:03.256Z,98606.53
2022-12-18T10:51:01.786Z,98606.53
2022-12-18T10:53:25.388Z,98603.81
2022-12-18T10:55:56.118Z,98604.72
2022-12-18T10:58:32.348Z,98604.72
2022-12-18T11:01:10.463Z,98613.44
2022-12-18T11:03:40.362Z,98606.44
2022-12-18T11:06:11.542Z,98603.81
2022-12-18T11:08:41.433Z,98608.13
2022-12-18T11:11:18.213Z,98601.94
2022-12-18T11:13:58.144Z,98600.19
2022-12-18T11:16:27.006Z,98599.34
2022-12-18T11:18:55.546Z,98607.19
2022-12-18T11:21:24.039Z,98615.00
2022-12-18T11:23:53.584Z,98603.66
2022-12-18T11:26:22.832Z,98602.72
2022-12-18T11:28:54.093Z,98607.03
2022-12-18T11:31:26.068Z,98596.56
2022-12-18T11:34:28.179Z,98598.25
2022-12-18T11:36:54.702Z,98587.75
2022-12-18T11:39:29.004Z,98588.53
2022-12-18T11:42:13.414Z,98581.34
2022-12-18T11:44:50.462Z,98582.28
2022-12-18T11:47:27.606Z,98578.81
2022-12-18T11:49:58.027Z,98582.28
2022-12-18T11:52:29.353Z,98570.94
2022-12-18T11:55:01.063Z,98578.81
2022-12-18T11:57:36.337Z,98574.47
2022-12-18T12:00:14.315Z,98565.75
2022-12-18T12:03:18.088Z,98568.31
2022-12-18T12:05:58.149Z,98558.66
2022-12-18T12:08:38.006Z,98563.13
2022-12-18T12:11:12.355Z,98564.75
2022-12-18T12:13:48.886Z,98551.66
2022-12-18T12:16:23.951Z,98549.03
2022-12-18T12:19:03.502Z,98550.72
2022-12-18T12:21:38.453Z,98554.19
2022-12-18T12:24:22.253Z,98539.38
2022-12-18T12:26:58.080Z,98553.34
2022-12-18T12:29:37.344Z,98549.88
2022-12-18T12:32:25.187Z,98551.66
2022-12-18T12:35:06.052Z,98555.19
2022-12-18T12:37:45.072Z,98550.88
2022-12-18T12:40:49.308Z,98546.41
2022-12-18T12:43:16.819Z,98556.03
2022-12-18T12:45:49.246Z,98549.19
2022-12-18T12:48:30.821Z,98546.63
2022-12-18T12:50:59.873Z,98552.72
2022-12-18T12:53:32.899Z,98563.22
2022-12-18T12:56:01.589Z,98561.53
2022-12-18T12:58:36.285Z,98558.97
2022-12-18T13:01:14.548Z,98554.75
2022-12-18T13:03:59.067Z,98556.44
2022-12-18T13:06:43.009Z,98558.22
2022-12-18T13:09:13.069Z,98564.38
2022-12-18T13:12:01.400Z,98556.44
2022-12-18T13:14:32.346Z,98565.16
2022-12-18T13:17:30.199Z,98556.44
2022-12-18T13:20:15.893Z,98556.44
2022-12-18T13:22:47.290Z,98540.53
2022-12-18T13:25:36.681Z,98542.22
2022-12-18T13:28:11.055Z,98540.53
2022-12-18T13:30:53.276Z,98537.91
2022-12-18T13:36:39.294Z,98528.34
2022-12-18T13:39:36.048Z,98530.03
2022-12-18T13:42:58.041Z,98527.41
2022-12-18T13:45:47.856Z,98528.34
2022-12-18T13:48:22.363Z,98524.78
2022-12-18T13:51:03.057Z,98533.59
2022-12-18T13:53:38.494Z,98531.91
2022-12-18T13:56:08.005Z,98543.25
2022-12-18T13:58:37.135Z,98541.53
2022-12-18T14:01:05.871Z,98543.25
2022-12-18T14:03:34.513Z,98542.38
2022-12-18T14:06:08.466Z,98543.31
2022-12-18T14:08:42.414Z,98546.78
2022-12-18T14:11:22.841Z,98554.66
2022-12-18T14:13:52.392Z,98546.78
2022-12-18T14:16:21.050Z,98546.72
2022-12-18T14:18:53.031Z,98542.53
2022-12-18T14:21:24.239Z,98545.09
2022-12-18T14:24:07.764Z,98545.94
2022-12-18T14:26:36.602Z,98552.03
2022-12-18T14:29:21.706Z,98546.78
2022-12-18T14:32:17.335Z,98541.63
2022-12-18T14:34:47.828Z,98552.03
2022-12-18T14:37:18.250Z,98552.97
2022-12-18T14:39:59.193Z,98550.34
2022-12-18T14:42:29.109Z,98542.53
2022-12-18T14:45:41.770Z,98536.38
2022-12-18T14:48:18.986Z,98533.84
2022-12-18T14:51:00.774Z,98532.06
2022-12-18T14:53:40.977Z,98539.00
2022-12-18T14:56:18.869Z,98529.44
2022-12-18T14:58:51.920Z,98531.13
2022-12-18T15:01:22.388Z,98532.06
2022-12-18T15:03:51.118Z,98529.44
2022-12-18T15:06:25.850Z,98540.69
2022-12-18T15:08:54.391Z,98539.00
2022-12-18T15:11:35.670Z,98527.72
2022-12-18T15:14:25.974Z,98538.22
2022-12-18T15:16:55.760Z,98550.41
2022-12-18T15:19:27.684Z,98549.66
2022-12-18T15:21:57.380Z,98545.25
2022-12-18T15:24:29.911Z,98546.09
2022-12-18T15:26:59.944Z,98536.66
2022-12-18T15:29:28.538Z,98544.41
2022-12-18T15:32:02.313Z,98552.28
2022-12-18T15:34:31.214Z,98553.13
2022-12-18T15:36:59.681Z,98566.22
2022-12-18T15:39:28.264Z,98564.56
2022-12-18T15:42:14.208Z,98554.16
2022-12-18T15:44:45.714Z,98557.63
2022-12-18T15:47:14.781Z,98545.50
2022-12-18T15:49:43.333Z,98551.63
2022-12-18T15:52:15.128Z,98539.34
2022-12-18T15:55:01.634Z,98543.75
2022-12-18T15:57:30.215Z,98556.00
2022-12-18T16:00:00.638Z,98556.84
2022-12-18T16:02:30.408Z,98560.31
2022-12-18T16:04:59.073Z,98558.63
2022-12-18T16:07:30.583Z,98558.63
2022-12-18T16:10:00.386Z,98553.38
2022-12-18T16:12:31.443Z,98553.47
2022-12-18T16:15:01.595Z,98552.63
2022-12-18T16:17:30.339Z,98549.06
2022-12-18T16:19:59.160Z,98554.38
2022-12-18T16:22:29.262Z,98548.28
2022-12-18T16:24:58.865Z,98543.06
2022-12-18T16:27:27.756Z,98541.19
2022-12-18T16:29:56.549Z,98543.91
2022-12-18T16:32:26.760Z,98540.34
2022-12-18T16:34:55.447Z,98530.78
2022-12-18T16:37:24.026Z,98541.19
2022-12-18T16:39:53.531Z,98529.94
2022-12-18T16:42:22.751Z,98528.31
2022-12-18T16:44:51.700Z,98541.34
2022-12-18T16:47:20.695Z,98541.34
2022-12-18T16:49:52.889Z,98540.50
2022-12-18T16:52:22.443Z,98534.34
2022-12-18T16:54:51.382Z,98532.56
2022-12-18T16:57:21.530Z,98529.94
2022-12-18T16:59:54.004Z,98535.19
2022-12-18T17:02:24.419Z,98524.69
2022-12-18T17:04:56.406Z,98539.66
2022-12-18T17:07:25.881Z,98541.34
2022-12-18T17:09:54.822Z,98537.88
2022-12-18T17:12:24.079Z,98537.03
2022-12-18T17:14:52.704Z,98536.09
2022-12-18T17:17:23.158Z,98543.97
2022-12-18T17:19:52.277Z,98544.91
2022-12-18T17:22:23.079Z,98537.97
2022-12-18T17:24:51.887Z,98533.47
2022-12-18T17:27:20.610Z,98537.88
2022-12-18T17:29:49.857Z,98525.69
2022-12-18T17:32:18.932Z,98532.63
2022-12-18T17:34:48.359Z,98523.91
2022-12-18T17:37:17.929Z,98529.09
2022-12-18T17:39:48.331Z,98520.38
2022-12-18T17:42:18.788Z,98525.63
2022-12-18T17:44:47.546Z,98524.00
2022-12-18T17:47:17.277Z,98525.78
2022-12-18T17:49:45.877Z,98524.78
2022-12-18T17:52:14.528Z,98521.28
2022-12-18T17:54:44.273Z,98515.28
2022-12-18T17:57:14.630Z,98511.81
2022-12-18T17:59:43.183Z,98510.88
2022-12-18T18:02:12.746Z,98520.53
2022-12-18T18:04:41.394Z,98518.75
2022-12-18T18:07:10.034Z,98518.69
2022-12-18T18:09:38.983Z,98521.38
2022-12-18T18:12:25.318Z,98523.00
2022-12-18T18:14:55.649Z,98522.16
2022-12-18T18:17:24.195Z,98514.34
2022-12-18T18:19:52.846Z,98516.06
2022-12-18T18:22:21.397Z,98513.44
2022-12-18T18:24:51.548Z,98515.22
2022-12-18T18:27:20.211Z,98512.50
2022-12-18T18:29:48.937Z,98512.44
2022-12-18T18:32:18.961Z,98512.50
2022-12-18T18:34:47.421Z,98517.75
2022-12-18T18:37:16.029Z,98514.19
2022-12-18T18:39:44.575Z,98507.25
2022-12-18T18:42:13.148Z,98509.88
2022-12-18T18:44:47.202Z,98516.81
2022-12-18T18:47:18.724Z,98512.44
2022-12-18T18:49:47.283Z,98505.41
2022-12-18T18:52:15.720Z,98506.34
2022-12-18T18:55:03.767Z,98504.56
2022-12-18T18:57:32.628Z,98504.47
2022-12-18T19:00:01.286Z,98500.16
2022-12-18T19:02:31.655Z,98506.34
2022-12-18T19:05:00.614Z,98506.34
2022-12-18T19:07:31.426Z,98512.59
2022-12-18T19:10:04.476Z,98503.03
2022-12-18T19:12:52.266Z,98505.66
2022-12-18T19:15:21.641Z,98505.72
2022-12-18T19:17:51.628Z,98513.66
2022-12-18T19:20:20.111Z,98509.28
2022-12-18T19:22:55.718Z,98504.94
2022-12-18T19:25:38.065Z,98492.00
2022-12-18T19:28:21.777Z,98496.41
2022-12-18T19:30:58.823Z,98492.00
2022-12-18T19:33:45.882Z,98485.97
2022-12-18T19:36:16.902Z,98484.28
2022-12-18T19:38:46.049Z,98489.53
2022-12-18T19:41:15.466Z,98493.84
2022-12-18T19:43:44.919Z,98492.16
2022-12-18T19:46:15.647Z,98490.47
2022-12-18T19:48:46.287Z,98487.84
2022-12-18T19:51:16.752Z,98484.38
2022-12-18T19:53:45.542Z,98483.53
2022-12-18T19:56:16.966Z,98477.34
2022-12-18T19:58:46.118Z,98476.66
2022-12-18T20:01:16.495Z,98480.13
2022-12-18T20:03:51.154Z,98485.28
2022-12-18T20:06:25.919Z,98482.59
2022-12-18T20:08:59.572Z,98479.19
2022-12-18T20:11:30.106Z,98485.38
2022-12-18T20:13:59.018Z,98486.22
2022-12-18T20:16:27.747Z,98485.38
2022-12-18T20:18:57.852Z,98468.03
2022-12-18T20:21:27.325Z,98463.63
2022-12-18T20:23:56.049Z,98463.63
2022-12-18T20:26:26.008Z,98459.31
2022-12-18T20:28:55.708Z,98464.47
2022-12-18T20:31:25.206Z,98469.72
2022-12-18T20:33:54.561Z,98468.88
2022-12-18T20:36:28.284Z,98469.72
2022-12-18T20:39:00.386Z,98475.81
2022-12-18T20:41:38.407Z,98478.50
2022-12-18T20:44:20.659Z,98463.63
2022-12-18T20:46:51.307Z,98463.69
2022-12-18T20:49:19.812Z,98448.81
2022-12-18T20:51:52.683Z,98458.38
2022-12-18T20:54:21.425Z,98467.09
2022-12-18T20:56:50.013Z,98468.78
2022-12-18T20:59:19.659Z,98481.06
2022-12-18T21:01:49.486Z,98473.03
2022-12-18T21:04:19.215Z,98464.31
2022-12-18T21:06:52.935Z,98467.78
2022-12-18T21:09:25.687Z,98472.09
2022-12-18T21:12:14.182Z,98458.16
2022-12-18T21:14:43.243Z,98457.28
2022-12-18T21:17:11.987Z,98451.13
2022-12-18T21:19:40.749Z,98448.50
2022-12-18T21:22:11.131Z,98448.50
2022-12-18T21:24:41.213Z,98437.94
2022-12-18T21:27:09.931Z,98437.84
2022-12-18T21:29:43.498Z,98444.88
2022-12-18T21:32:13.820Z,98439.63
2022-12-18T21:34:47.797Z,98451.81
2022-12-18T21:37:17.038Z,98438.78
2022-12-18T21:39:47.996Z,98442.16
2022-12-18T21:42:34.182Z,98438.78
2022-12-18T21:45:02.858Z,98452.66
2022-12-18T21:47:31.579Z,98463.16
2022-12-18T21:50:00.349Z,98438.69
2022-12-18T21:52:31.919Z,98427.38
2022-12-18T21:55:08.873Z,98434.38
2022-12-18T21:57:38.790Z,98436.94
2022-12-18T22:00:18.292Z,98443.88
2022-12-18T22:03:07.397Z,98448.25
2022-12-18T22:05:37.952Z,98450.88
2022-12-18T22:08:07.512Z,98443.03
2022-12-18T22:10:38.087Z,98437.78
2022-12-18T22:13:07.285Z,98433.38
2022-12-18T22:15:35.924Z,98428.97
2022-12-18T22:18:04.662Z,98449.97
2022-12-18T22:20:33.467Z,98453.44
2022-12-18T22:23:06.096Z,98449.13
2022-12-18T22:25:36.004Z,98433.31
2022-12-18T22:28:27.652Z,98429.91
2022-12-18T22:30:59.612Z,98428.97
2022-12-18T22:33:28.768Z,98428.97
2022-12-18T22:35:57.381Z,98425.44
2022-12-18T22:38:27.011Z,98427.97
2022-12-18T22:40:56.191Z,98412.25
2022-12-18T22:43:26.053Z,98403.59
2022-12-18T22:45:54.681Z,98396.59
2022-12-18T22:48:23.891Z,98392.19
2022-12-18T22:50:53.060Z,98394.81
2022-12-18T22:53:27.920Z,98396.50
2022-12-18T22:56:01.730Z,98387.78
2022-12-18T22:58:31.978Z,98388.63
2022-12-18T23:01:00.439Z,98396.50
2022-12-18T23:03:28.955Z,98406.91
2022-12-18T23:06:04.077Z,98402.59
2022-12-18T23:08:32.712Z,98396.50
2022-12-18T23:11:01.758Z,98388.63
2022-12-18T23:13:31.672Z,98398.19
2022-12-18T23:16:00.305Z,98390.34
2022-12-18T23:18:28.917Z,98385.94
2022-12-18T23:20:57.654Z,98391.19
2022-12-18T23:23:26.341Z,98384.16
2022-12-18T23:26:01.606Z,98377.22
2022-12-18T23:28:32.768Z,98370.28
2022-12-18T23:31:06.695Z,98376.28
2022-12-18T23:33:35.644Z,98369.28
2022-12-18T23:36:05.327Z,98369.34
2022-12-18T23:38:34.711Z,98377.97
2022-12-18T23:41:08.727Z,98390.34
2022-12-18T23:43:39.040Z,98398.97
2022-12-18T23:46:11.837Z,98413.78
2022-12-18T23:48:40.576Z,98416.41
2022-12-18T23:51:10.263Z,98412.94
2022-12-18T23:53:39.095Z,98424.34
2022-12-18T23:56:08.612Z,98413.00
2022-12-18T23:58:38.635Z,98412.16
